createdAt,value
2023-05-16T00:00:18.776Z,44.23
2023-05-16T00:00:50.285Z,44.25
2023-05-16T00:01:21.803Z,44.25
2023-05-16T00:01:53.320Z,44.11
2023-05-16T00:02:24.989Z,44.17
2023-05-16T00:02:56.581Z,44.10
2023-05-16T00:03:28.264Z,44.25
2023-05-16T00:04:00.004Z,44.11
2023-05-16T00:04:31.798Z,43.85
2023-05-16T00:05:03.892Z,44.33
2023-05-16T00:05:35.453Z,43.96
2023-05-16T00:06:07.028Z,44.23
2023-05-16T00:06:38.758Z,44.15
2023-05-16T00:07:10.383Z,44.26
2023-05-16T00:07:45.287Z,44.21
2023-05-16T00:08:16.763Z,44.10
2023-05-16T00:08:48.652Z,43.99
2023-05-16T00:09:20.176Z,44.26
2023-05-16T00:09:51.702Z,44.18
2023-05-16T00:10:23.367Z,43.75
2023-05-16T00:10:55.022Z,43.81
2023-05-16T00:11:26.798Z,44.16
2023-05-16T00:11:58.386Z,43.90
2023-05-16T00:12:29.885Z,44.13
2023-05-16T00:13:01.404Z,44.00
2023-05-16T00:13:32.953Z,43.65
2023-05-16T00:14:04.614Z,44.03
2023-05-16T00:14:36.162Z,43.97
2023-05-16T00:15:08.191Z,43.59
2023-05-16T00:15:39.739Z,43.65
2023-05-16T00:16:11.295Z,43.74
2023-05-16T00:16:42.842Z,43.95
2023-05-16T00:17:14.545Z,43.64
2023-05-16T00:17:46.509Z,43.86
2023-05-16T00:18:18.337Z,43.92
2023-05-16T00:18:50.082Z,43.91
2023-05-16T00:19:21.765Z,43.51
2023-05-16T00:19:53.321Z,43.66
2023-05-16T00:20:28.450Z,43.83
2023-05-16T00:21:00.406Z,43.94
2023-05-16T00:21:31.969Z,43.91
2023-05-16T00:22:03.538Z,43.51
2023-05-16T00:22:35.101Z,43.84
2023-05-16T00:23:06.608Z,43.77
2023-05-16T00:23:38.150Z,43.52
2023-05-16T00:24:09.688Z,43.62
2023-05-16T00:24:41.412Z,43.61
2023-05-16T00:25:12.885Z,43.65
2023-05-16T00:25:44.432Z,43.77
2023-05-16T00:26:16.050Z,43.67
2023-05-16T00:26:47.584Z,43.43
2023-05-16T00:27:19.136Z,43.61
2023-05-16T00:27:50.722Z,43.73
2023-05-16T00:28:22.217Z,43.64
2023-05-16T00:28:53.774Z,43.77
2023-05-16T00:29:25.305Z,43.57
2023-05-16T00:29:56.797Z,43.58
2023-05-16T00:30:28.625Z,43.80
2023-05-16T00:31:00.355Z,43.53
2023-05-16T00:31:32.063Z,43.57
2023-05-16T00:32:03.742Z,43.64
2023-05-16T00:32:36.038Z,43.65
2023-05-16T00:33:07.741Z,43.41
2023-05-16T00:33:39.275Z,43.81
2023-05-16T00:34:10.806Z,43.67
2023-05-16T00:34:42.446Z,43.55
2023-05-16T00:35:13.990Z,43.49
2023-05-16T00:35:45.503Z,43.73
2023-05-16T00:36:17.062Z,43.71
2023-05-16T00:36:49.833Z,43.55
2023-05-16T00:37:21.275Z,43.79
2023-05-16T00:37:52.795Z,43.77
2023-05-16T00:38:24.720Z,43.48
2023-05-16T00:38:56.236Z,43.93
2023-05-16T00:39:27.795Z,43.56
2023-05-16T00:39:59.396Z,43.49
2023-05-16T00:40:30.948Z,43.57
2023-05-16T00:41:02.547Z,43.68
2023-05-16T00:41:34.212Z,43.76
2023-05-16T00:42:05.762Z,43.41
2023-05-16T00:42:37.986Z,43.83
2023-05-16T00:43:09.506Z,43.55
2023-05-16T00:43:41.055Z,43.81
2023-05-16T00:44:12.651Z,43.68
2023-05-16T00:44:44.129Z,43.88
2023-05-16T00:45:15.667Z,43.63
2023-05-16T00:45:47.220Z,43.83
2023-05-16T00:46:18.904Z,43.52
2023-05-16T00:46:50.505Z,43.57
2023-05-16T00:47:22.077Z,43.56
2023-05-16T00:47:53.541Z,43.67
2023-05-16T00:48:25.111Z,43.45
2023-05-16T00:48:56.672Z,43.56
2023-05-16T00:49:28.373Z,43.37
2023-05-16T00:50:00.029Z,43.43
2023-05-16T00:50:32.513Z,43.62
2023-05-16T00:51:04.075Z,43.63
2023-05-16T00:51:35.679Z,43.66
2023-05-16T00:52:07.130Z,43.39
2023-05-16T00:52:38.655Z,43.49
2023-05-16T00:53:10.245Z,43.41
2023-05-16T00:53:41.733Z,43.46
2023-05-16T00:54:13.227Z,43.38
2023-05-16T00:54:44.748Z,43.70
2023-05-16T00:55:16.255Z,43.64
2023-05-16T00:55:47.768Z,43.57
2023-05-16T00:56:19.288Z,43.66
2023-05-16T00:56:50.780Z,43.68
2023-05-16T00:57:22.249Z,43.41
2023-05-16T00:57:53.853Z,43.50
2023-05-16T00:58:25.417Z,43.43
2023-05-16T00:58:57.093Z,43.53
2023-05-16T00:59:28.689Z,43.46
2023-05-16T01:00:00.237Z,43.42
2023-05-16T01:00:31.910Z,43.28
2023-05-16T01:01:03.530Z,43.14
2023-05-16T01:01:35.149Z,43.24
2023-05-16T01:02:06.762Z,43.23
2023-05-16T01:02:38.592Z,43.18
2023-05-16T01:03:10.738Z,43.31
2023-05-16T01:03:42.797Z,43.26
2023-05-16T01:04:14.435Z,43.32
2023-05-16T01:04:45.961Z,43.26
2023-05-16T01:05:17.506Z,43.62
2023-05-16T01:05:49.170Z,43.30
2023-05-16T01:06:20.734Z,43.23
2023-05-16T01:06:52.269Z,43.44
2023-05-16T01:07:23.810Z,43.23
2023-05-16T01:07:55.350Z,43.35
2023-05-16T01:08:26.925Z,43.60
2023-05-16T01:08:58.477Z,43.29
2023-05-16T01:09:29.985Z,43.39
2023-05-16T01:10:01.967Z,43.22
2023-05-16T01:10:38.349Z,43.59
2023-05-16T01:11:13.981Z,43.39
2023-05-16T01:12:03.897Z,43.47
2023-05-16T01:12:35.389Z,43.37
2023-05-16T01:13:09.323Z,43.40
2023-05-16T01:14:01.169Z,43.31
2023-05-16T01:14:37.930Z,43.37
2023-05-16T01:15:09.444Z,43.17
2023-05-16T01:15:47.681Z,43.45
2023-05-16T01:16:22.357Z,43.20
2023-05-16T01:17:12.146Z,43.48
2023-05-16T01:18:01.685Z,43.53
2023-05-16T01:18:52.886Z,43.20
2023-05-16T01:19:30.099Z,43.56
2023-05-16T01:20:10.918Z,43.38
2023-05-16T01:20:49.555Z,43.14
2023-05-16T01:21:25.697Z,43.12
2023-05-16T01:21:59.860Z,43.37
2023-05-16T01:22:46.223Z,43.17
2023-05-16T01:23:26.486Z,43.15
2023-05-16T01:24:03.675Z,43.27
2023-05-16T01:24:40.263Z,43.11
2023-05-16T01:25:30.290Z,43.12
2023-05-16T01:26:16.869Z,43.18
2023-05-16T01:26:48.437Z,43.33
2023-05-16T01:27:20.050Z,43.39
2023-05-16T01:27:52.063Z,43.11
2023-05-16T01:28:23.591Z,43.18
2023-05-16T01:28:55.102Z,43.41
2023-05-16T01:29:26.724Z,43.06
2023-05-16T01:29:58.274Z,43.30
2023-05-16T01:30:32.783Z,43.12
2023-05-16T01:31:04.553Z,43.21
2023-05-16T01:31:36.209Z,43.23
2023-05-16T01:32:07.822Z,42.93
2023-05-16T01:32:39.486Z,43.18
2023-05-16T01:33:11.036Z,43.42
2023-05-16T01:33:42.668Z,43.36
2023-05-16T01:34:14.355Z,42.97
2023-05-16T01:34:45.879Z,43.16
2023-05-16T01:35:17.607Z,43.24
2023-05-16T01:35:58.560Z,43.17
2023-05-16T01:36:30.076Z,43.12
2023-05-16T01:37:07.371Z,43.03
2023-05-16T01:37:41.488Z,42.99
2023-05-16T01:38:12.955Z,43.02
2023-05-16T01:38:44.500Z,43.24
2023-05-16T01:39:18.917Z,42.85
2023-05-16T01:39:57.642Z,43.09
2023-05-16T01:40:41.156Z,43.06
2023-05-16T01:41:12.691Z,42.86
2023-05-16T01:42:03.145Z,42.78
2023-05-16T01:42:35.175Z,43.03
2023-05-16T01:43:08.873Z,42.79
2023-05-16T01:43:43.613Z,42.98
2023-05-16T01:44:19.096Z,43.15
2023-05-16T01:44:53.149Z,43.19
2023-05-16T01:45:26.413Z,43.15
2023-05-16T01:46:00.349Z,43.19
2023-05-16T01:46:34.238Z,42.96
2023-05-16T01:47:09.876Z,42.82
2023-05-16T01:47:41.609Z,42.91
2023-05-16T01:48:16.767Z,42.94
2023-05-16T01:48:51.067Z,43.04
2023-05-16T01:49:34.334Z,42.88
2023-05-16T01:50:10.343Z,43.09
2023-05-16T01:50:45.920Z,42.91
2023-05-16T01:51:17.476Z,42.96
2023-05-16T01:51:50.702Z,42.93
2023-05-16T01:52:28.964Z,42.81
2023-05-16T01:53:00.938Z,43.01
2023-05-16T01:53:33.839Z,42.96
2023-05-16T01:54:05.883Z,43.23
2023-05-16T01:54:38.023Z,43.02
2023-05-16T01:55:15.181Z,43.09
2023-05-16T01:55:47.238Z,43.14
2023-05-16T01:56:18.788Z,42.89
2023-05-16T01:56:56.437Z,43.04
2023-05-16T01:57:28.123Z,43.03
2023-05-16T01:57:59.651Z,43.23
2023-05-16T01:58:32.088Z,42.93
2023-05-16T01:59:03.767Z,43.07
2023-05-16T01:59:35.596Z,42.83
2023-05-16T02:00:07.678Z,43.13
2023-05-16T02:00:39.911Z,43.09
2023-05-16T02:01:11.978Z,42.86
2023-05-16T02:01:43.712Z,42.84
2023-05-16T02:02:17.886Z,42.94
2023-05-16T02:02:49.708Z,43.19
2023-05-16T02:03:21.319Z,43.27
2023-05-16T02:03:53.027Z,43.21
2023-05-16T02:04:24.535Z,42.99
2023-05-16T02:04:56.002Z,43.07
2023-05-16T02:05:27.902Z,42.75
2023-05-16T02:05:59.726Z,42.99
2023-05-16T02:06:31.261Z,43.12
2023-05-16T02:07:02.774Z,42.85
2023-05-16T02:07:34.406Z,42.80
2023-05-16T02:08:06.135Z,42.71
2023-05-16T02:08:37.695Z,42.75
2023-05-16T02:09:41.766Z,42.85
2023-05-16T02:10:13.088Z,43.07
2023-05-16T02:10:44.412Z,42.75
2023-05-16T02:11:15.713Z,42.83
2023-05-16T02:11:47.029Z,42.74
2023-05-16T02:12:18.340Z,42.75
2023-05-16T02:12:50.249Z,43.05
2023-05-16T02:13:21.534Z,42.81
2023-05-16T02:13:52.787Z,42.94
2023-05-16T02:14:24.089Z,42.89
2023-05-16T02:14:55.384Z,42.73
2023-05-16T02:15:27.004Z,42.94
2023-05-16T02:15:58.422Z,42.94
2023-05-16T02:16:30.181Z,42.97
2023-05-16T02:17:01.732Z,42.90
2023-05-16T02:17:33.130Z,42.67
2023-05-16T02:18:04.545Z,42.78
2023-05-16T02:18:35.881Z,42.82
2023-05-16T02:19:07.216Z,42.64
2023-05-16T02:19:38.512Z,42.78
2023-05-16T02:20:10.104Z,42.80
2023-05-16T02:20:41.466Z,42.86
2023-05-16T02:21:12.750Z,42.60
2023-05-16T02:21:44.038Z,42.58
2023-05-16T02:22:15.330Z,42.51
2023-05-16T02:22:46.593Z,42.53
2023-05-16T02:23:17.903Z,42.35
2023-05-16T02:23:49.182Z,42.29
2023-05-16T02:24:20.471Z,42.66
2023-05-16T02:24:51.726Z,42.57
2023-05-16T02:25:23.064Z,42.37
2023-05-16T02:25:54.383Z,42.59
2023-05-16T02:26:25.671Z,42.62
2023-05-16T02:26:56.994Z,42.22
2023-05-16T02:27:28.282Z,42.40
2023-05-16T02:27:59.596Z,42.66
2023-05-16T02:28:30.874Z,42.34
2023-05-16T02:29:02.355Z,42.47
2023-05-16T02:29:33.650Z,42.50
2023-05-16T02:30:05.198Z,42.25
2023-05-16T02:30:36.540Z,42.44
2023-05-16T02:31:07.957Z,42.20
2023-05-16T02:31:39.417Z,42.07
2023-05-16T02:32:10.838Z,42.39
2023-05-16T02:32:42.150Z,42.30
2023-05-16T02:33:13.430Z,42.09
2023-05-16T02:33:44.715Z,42.38
2023-05-16T02:34:16.037Z,42.28
2023-05-16T02:34:47.403Z,41.97
2023-05-16T02:35:18.696Z,42.19
2023-05-16T02:35:49.975Z,42.10
2023-05-16T02:36:21.244Z,41.90
2023-05-16T02:36:52.526Z,42.21
2023-05-16T02:37:23.826Z,41.85
2023-05-16T02:37:55.092Z,42.11
2023-05-16T02:38:26.373Z,42.00
2023-05-16T02:38:57.696Z,42.16
2023-05-16T02:39:28.961Z,41.79
2023-05-16T02:40:00.205Z,42.04
2023-05-16T02:40:31.478Z,41.92
2023-05-16T02:41:02.790Z,42.19
2023-05-16T02:41:34.109Z,41.99
2023-05-16T02:42:06.300Z,41.90
2023-05-16T02:42:37.587Z,41.90
2023-05-16T02:43:08.917Z,42.04
2023-05-16T02:43:40.271Z,41.93
2023-05-16T02:44:11.538Z,42.03
2023-05-16T02:44:42.804Z,41.86
2023-05-16T02:45:14.140Z,41.75
2023-05-16T02:45:45.530Z,41.82
2023-05-16T02:46:35.163Z,41.64
2023-05-16T02:47:06.477Z,41.85
2023-05-16T02:47:37.782Z,41.76
2023-05-16T02:48:09.166Z,41.86
2023-05-16T02:48:40.514Z,41.72
2023-05-16T02:49:11.791Z,41.89
2023-05-16T02:49:43.091Z,42.03
2023-05-16T02:50:14.336Z,41.68
2023-05-16T02:50:45.611Z,41.79
2023-05-16T02:51:16.866Z,41.87
2023-05-16T02:51:48.331Z,41.87
2023-05-16T02:52:19.684Z,41.80
2023-05-16T02:52:50.952Z,41.67
2023-05-16T02:53:22.261Z,41.60
2023-05-16T02:53:53.556Z,41.74
2023-05-16T02:54:24.856Z,41.67
2023-05-16T02:55:15.982Z,41.50
2023-05-16T02:55:47.407Z,41.80
2023-05-16T02:56:18.897Z,41.79
2023-05-16T02:56:50.225Z,41.61
2023-05-16T02:57:21.571Z,41.62
2023-05-16T02:57:52.872Z,41.74
2023-05-16T02:58:24.170Z,41.82
2023-05-16T02:58:55.460Z,41.67
2023-05-16T02:59:26.849Z,41.80
2023-05-16T02:59:58.141Z,41.65
2023-05-16T03:00:29.612Z,41.56
2023-05-16T03:01:00.963Z,41.73
2023-05-16T03:01:32.301Z,41.57
2023-05-16T03:02:03.748Z,41.77
2023-05-16T03:02:35.181Z,41.83
2023-05-16T03:03:06.670Z,41.67
2023-05-16T03:03:38.082Z,41.77
2023-05-16T03:04:09.526Z,41.79
2023-05-16T03:04:40.931Z,41.76
2023-05-16T03:05:12.319Z,41.73
2023-05-16T03:05:43.609Z,41.61
2023-05-16T03:06:14.867Z,41.71
2023-05-16T03:06:46.174Z,41.75
2023-05-16T03:07:17.459Z,41.60
2023-05-16T03:07:48.709Z,41.56
2023-05-16T03:08:19.997Z,41.52
2023-05-16T03:08:51.303Z,41.52
2023-05-16T03:09:22.608Z,41.59
2023-05-16T03:09:53.854Z,41.57
2023-05-16T03:10:25.112Z,41.49
2023-05-16T03:10:56.378Z,41.64
2023-05-16T03:11:27.672Z,41.85
2023-05-16T03:11:58.946Z,41.53
2023-05-16T03:12:30.256Z,41.60
2023-05-16T03:13:01.585Z,41.65
2023-05-16T03:13:32.859Z,41.59
2023-05-16T03:14:04.144Z,41.45
2023-05-16T03:14:35.413Z,41.72
2023-05-16T03:15:07.022Z,41.72
2023-05-16T03:15:38.316Z,41.60
2023-05-16T03:16:09.669Z,41.84
2023-05-16T03:16:41.170Z,41.71
2023-05-16T03:17:12.523Z,41.47
2023-05-16T03:17:43.924Z,41.67
2023-05-16T03:18:15.315Z,41.57
2023-05-16T03:18:46.669Z,41.47
2023-05-16T03:19:18.128Z,41.63
2023-05-16T03:19:49.498Z,41.65
2023-05-16T03:20:20.792Z,41.44
2023-05-16T03:20:52.076Z,41.58
2023-05-16T03:21:23.355Z,41.75
2023-05-16T03:21:54.624Z,41.49
2023-05-16T03:22:25.901Z,41.75
2023-05-16T03:22:57.181Z,41.54
2023-05-16T03:23:28.451Z,41.46
2023-05-16T03:23:59.793Z,41.41
2023-05-16T03:24:31.176Z,41.74
2023-05-16T03:25:02.467Z,41.42
2023-05-16T03:25:34.267Z,41.60
2023-05-16T03:26:05.627Z,41.56
2023-05-16T03:26:36.998Z,41.59
2023-05-16T03:27:08.334Z,41.47
2023-05-16T03:27:39.625Z,41.53
2023-05-16T03:28:11.968Z,41.58
2023-05-16T03:28:44.089Z,41.65
2023-05-16T03:29:15.343Z,41.61
2023-05-16T03:29:46.616Z,41.48
2023-05-16T03:30:17.989Z,41.53
2023-05-16T03:30:49.285Z,41.72
2023-05-16T03:31:20.797Z,41.63
2023-05-16T03:31:52.196Z,41.56
2023-05-16T03:32:23.558Z,41.43
2023-05-16T03:32:55.217Z,41.45
2023-05-16T03:33:26.601Z,41.83
2023-05-16T03:33:57.900Z,41.46
2023-05-16T03:34:29.163Z,41.58
2023-05-16T03:35:00.583Z,41.59
2023-05-16T03:35:32.035Z,41.65
2023-05-16T03:36:03.393Z,41.38
2023-05-16T03:36:34.753Z,41.39
2023-05-16T03:37:06.032Z,41.24
2023-05-16T03:37:37.575Z,41.53
2023-05-16T03:38:08.874Z,41.61
2023-05-16T03:38:40.269Z,41.58
2023-05-16T03:39:11.588Z,41.62
2023-05-16T03:39:42.889Z,41.53
2023-05-16T03:40:14.184Z,41.60
2023-05-16T03:40:45.506Z,41.39
2023-05-16T03:41:16.796Z,41.62
2023-05-16T03:41:48.076Z,41.63
2023-05-16T03:42:19.350Z,41.50
2023-05-16T03:42:50.627Z,41.66
2023-05-16T03:43:21.972Z,41.69
2023-05-16T03:43:53.276Z,41.55
2023-05-16T03:44:24.613Z,41.67
2023-05-16T03:44:55.918Z,41.53
2023-05-16T03:45:27.417Z,41.38
2023-05-16T03:46:00.907Z,41.45
2023-05-16T03:46:32.349Z,41.63
2023-05-16T03:47:03.704Z,41.47
2023-05-16T03:47:35.165Z,41.37
2023-05-16T03:48:06.673Z,41.28
2023-05-16T03:48:38.115Z,41.32
2023-05-16T03:49:09.450Z,41.43
2023-05-16T03:49:40.696Z,41.37
2023-05-16T03:50:11.988Z,41.60
2023-05-16T03:50:43.259Z,41.29
2023-05-16T03:51:14.547Z,41.75
2023-05-16T03:51:45.795Z,41.46
2023-05-16T03:52:17.096Z,41.63
2023-05-16T03:52:48.401Z,41.44
2023-05-16T03:53:19.696Z,41.66
2023-05-16T03:53:50.983Z,41.62
2023-05-16T03:54:22.309Z,41.49
2023-05-16T03:54:53.627Z,41.26
2023-05-16T03:55:25.182Z,41.38
2023-05-16T03:55:56.672Z,41.56
2023-05-16T03:56:28.196Z,41.54
2023-05-16T03:56:59.536Z,41.42
2023-05-16T03:57:31.080Z,41.24
2023-05-16T03:58:02.385Z,41.46
2023-05-16T03:58:33.684Z,41.41
2023-05-16T03:59:04.979Z,41.32
2023-05-16T03:59:36.253Z,41.48
2023-05-16T04:00:08.027Z,41.38
2023-05-16T04:00:39.352Z,41.38
2023-05-16T04:01:10.652Z,41.49
2023-05-16T04:01:41.981Z,41.33
2023-05-16T04:02:13.336Z,41.38
2023-05-16T04:02:44.779Z,41.51
2023-05-16T04:03:16.412Z,41.36
2023-05-16T04:03:47.730Z,41.51
2023-05-16T04:04:18.964Z,41.57
2023-05-16T04:04:50.241Z,41.14
2023-05-16T04:05:21.631Z,41.36
2023-05-16T04:05:53.086Z,41.37
2023-05-16T04:06:24.418Z,41.40
2023-05-16T04:06:55.713Z,41.18
2023-05-16T04:07:26.993Z,41.31
2023-05-16T04:07:58.277Z,41.33
2023-05-16T04:08:29.660Z,41.34
2023-05-16T04:09:00.926Z,41.11
2023-05-16T04:09:32.192Z,41.25
2023-05-16T04:10:03.918Z,41.27
2023-05-16T04:10:35.201Z,41.24
2023-05-16T04:11:06.487Z,41.03
2023-05-16T04:11:37.789Z,41.25
2023-05-16T04:12:09.061Z,40.98
2023-05-16T04:12:40.350Z,41.16
2023-05-16T04:13:11.673Z,41.13
2023-05-16T04:13:42.987Z,41.16
2023-05-16T04:14:14.592Z,41.19
2023-05-16T04:14:45.925Z,41.17
2023-05-16T04:15:17.238Z,41.07
2023-05-16T04:15:48.529Z,41.08
2023-05-16T04:16:19.952Z,41.41
2023-05-16T04:16:51.383Z,41.39
2023-05-16T04:17:22.896Z,41.11
2023-05-16T04:17:54.253Z,40.98
2023-05-16T04:18:25.615Z,41.08
2023-05-16T04:18:56.927Z,41.38
2023-05-16T04:19:28.235Z,41.20
2023-05-16T04:19:59.539Z,40.95
2023-05-16T04:20:32.829Z,41.22
2023-05-16T04:21:04.403Z,41.12
2023-05-16T04:21:35.787Z,41.01
2023-05-16T04:22:07.063Z,41.07
2023-05-16T04:22:38.400Z,41.01
2023-05-16T04:23:09.722Z,40.95
2023-05-16T04:23:41.288Z,40.92
2023-05-16T04:24:12.641Z,41.17
2023-05-16T04:24:43.949Z,40.95
2023-05-16T04:25:15.269Z,40.83
2023-05-16T04:25:46.550Z,40.96
2023-05-16T04:26:17.863Z,40.81
2023-05-16T04:26:49.244Z,40.63
2023-05-16T04:27:20.628Z,40.73
2023-05-16T04:27:51.937Z,40.63
2023-05-16T04:28:23.235Z,40.70
2023-05-16T04:28:54.538Z,40.61
2023-05-16T04:29:25.852Z,40.78
2023-05-16T04:29:57.137Z,40.62
2023-05-16T04:30:28.395Z,40.83
2023-05-16T04:30:59.689Z,40.87
2023-05-16T04:31:31.102Z,40.74
2023-05-16T04:32:02.612Z,40.48
2023-05-16T04:32:34.035Z,40.79
2023-05-16T04:33:05.454Z,40.65
2023-05-16T04:33:36.813Z,40.91
2023-05-16T04:34:08.112Z,40.54
2023-05-16T04:34:40.252Z,40.71
2023-05-16T04:35:11.906Z,40.71
2023-05-16T04:35:43.296Z,40.76
2023-05-16T04:36:14.554Z,40.52
2023-05-16T04:36:45.839Z,40.74
2023-05-16T04:37:17.144Z,40.79
2023-05-16T04:37:48.480Z,40.66
2023-05-16T04:38:19.760Z,40.52
2023-05-16T04:38:51.065Z,40.60
2023-05-16T04:39:22.349Z,40.53
2023-05-16T04:39:53.646Z,40.61
2023-05-16T04:40:24.909Z,40.85
2023-05-16T04:40:56.213Z,40.87
2023-05-16T04:41:27.503Z,40.84
2023-05-16T04:41:58.799Z,40.62
2023-05-16T04:42:30.097Z,40.83
2023-05-16T04:43:01.937Z,40.53
2023-05-16T04:43:33.293Z,40.49
2023-05-16T04:44:04.574Z,40.63
2023-05-16T04:44:35.883Z,40.87
2023-05-16T04:45:07.542Z,40.75
2023-05-16T04:45:38.831Z,40.77
2023-05-16T04:46:10.244Z,40.74
2023-05-16T04:46:41.737Z,40.68
2023-05-16T04:47:13.396Z,40.84
2023-05-16T04:47:44.709Z,40.89
2023-05-16T04:48:16.004Z,40.73
2023-05-16T04:48:47.288Z,40.53
2023-05-16T04:49:18.877Z,40.82
2023-05-16T04:49:50.141Z,40.97
2023-05-16T04:50:21.405Z,40.72
2023-05-16T04:50:52.702Z,40.43
2023-05-16T04:51:23.977Z,40.69
2023-05-16T04:51:55.245Z,40.63
2023-05-16T04:52:26.535Z,40.52
2023-05-16T04:52:57.937Z,40.38
2023-05-16T04:53:29.262Z,40.50
2023-05-16T04:54:00.558Z,40.41
2023-05-16T04:54:31.824Z,40.44
2023-05-16T04:55:03.287Z,40.45
2023-05-16T04:55:34.612Z,40.40
2023-05-16T04:56:05.998Z,40.27
2023-05-16T04:56:37.261Z,40.48
2023-05-16T04:57:08.537Z,40.52
2023-05-16T04:57:39.801Z,40.26
2023-05-16T04:58:11.120Z,40.46
2023-05-16T04:58:42.977Z,40.22
2023-05-16T04:59:14.308Z,40.23
2023-05-16T04:59:45.602Z,40.38
2023-05-16T05:00:17.343Z,40.38
2023-05-16T05:00:48.603Z,40.26
2023-05-16T05:01:20.099Z,40.35
2023-05-16T05:01:51.485Z,40.31
2023-05-16T05:02:22.837Z,40.12
2023-05-16T05:02:54.299Z,40.10
2023-05-16T05:03:25.681Z,40.27
2023-05-16T05:03:56.957Z,40.18
2023-05-16T05:04:28.365Z,40.20
2023-05-16T05:04:59.702Z,40.20
2023-05-16T05:05:31.303Z,40.30
2023-05-16T05:06:03.014Z,40.20
2023-05-16T05:06:34.315Z,40.26
2023-05-16T05:07:05.700Z,39.95
2023-05-16T05:07:36.955Z,40.01
2023-05-16T05:08:08.210Z,39.99
2023-05-16T05:08:39.538Z,40.17
2023-05-16T05:09:10.852Z,39.98
2023-05-16T05:09:42.135Z,40.02
2023-05-16T05:10:13.403Z,39.87
2023-05-16T05:10:44.696Z,40.01
2023-05-16T05:11:15.967Z,39.87
2023-05-16T05:11:47.248Z,39.69
2023-05-16T05:12:18.532Z,39.77
2023-05-16T05:12:49.827Z,39.68
2023-05-16T05:13:21.115Z,39.72
2023-05-16T05:13:53.102Z,39.72
2023-05-16T05:14:24.483Z,39.85
2023-05-16T05:14:55.751Z,39.72
2023-05-16T05:15:27.126Z,39.70
2023-05-16T05:15:58.703Z,39.71
2023-05-16T05:16:29.947Z,39.86
2023-05-16T05:17:01.249Z,39.80
2023-05-16T05:17:32.684Z,39.79
2023-05-16T05:18:04.247Z,39.91
2023-05-16T05:18:35.640Z,39.77
2023-05-16T05:19:07.044Z,39.76
2023-05-16T05:19:38.738Z,39.84
2023-05-16T05:20:10.422Z,39.82
2023-05-16T05:20:41.731Z,39.83
2023-05-16T05:21:13.013Z,39.86
2023-05-16T05:21:44.335Z,39.86
2023-05-16T05:22:15.619Z,39.89
2023-05-16T05:22:46.919Z,39.59
2023-05-16T05:23:18.254Z,39.59
2023-05-16T05:23:49.539Z,39.76
2023-05-16T05:24:20.815Z,39.80
2023-05-16T05:24:52.122Z,39.74
2023-05-16T05:25:23.458Z,39.89
2023-05-16T05:25:54.708Z,39.59
2023-05-16T05:26:25.966Z,39.71
2023-05-16T05:26:57.257Z,39.72
2023-05-16T05:27:28.559Z,39.74
2023-05-16T05:27:59.864Z,39.47
2023-05-16T05:28:31.151Z,39.51
2023-05-16T05:29:05.726Z,39.55
2023-05-16T05:29:37.654Z,39.60
2023-05-16T05:30:09.052Z,39.79
2023-05-16T05:30:42.288Z,39.59
2023-05-16T05:31:14.491Z,39.78
2023-05-16T05:31:45.781Z,39.44
2023-05-16T05:32:17.078Z,39.73
2023-05-16T05:32:48.414Z,39.65
2023-05-16T05:33:19.832Z,39.83
2023-05-16T05:33:51.145Z,39.80
2023-05-16T05:34:22.421Z,39.86
2023-05-16T05:34:53.678Z,39.77
2023-05-16T05:35:25.072Z,39.60
2023-05-16T05:35:56.562Z,39.54
2023-05-16T05:36:27.912Z,39.46
2023-05-16T05:36:59.225Z,39.72
2023-05-16T05:37:30.517Z,39.52
2023-05-16T05:38:01.904Z,39.52
2023-05-16T05:38:33.161Z,39.45
2023-05-16T05:39:04.455Z,39.38
2023-05-16T05:39:35.741Z,39.60
2023-05-16T05:40:07.335Z,39.48
2023-05-16T05:40:38.623Z,39.62
2023-05-16T05:41:09.891Z,39.60
2023-05-16T05:41:41.195Z,39.59
2023-05-16T05:42:12.542Z,39.38
2023-05-16T05:42:46.713Z,39.67
2023-05-16T05:43:18.423Z,39.51
2023-05-16T05:43:49.699Z,39.71
2023-05-16T05:44:20.946Z,39.80
2023-05-16T05:44:52.258Z,39.66
2023-05-16T05:45:23.584Z,39.72
2023-05-16T05:45:55.170Z,39.47
2023-05-16T05:46:26.584Z,39.46
2023-05-16T05:46:57.948Z,39.62
2023-05-16T05:47:29.390Z,39.34
2023-05-16T05:48:00.745Z,39.37
2023-05-16T05:48:32.076Z,39.42
2023-05-16T05:49:03.347Z,39.55
2023-05-16T05:49:34.628Z,39.60
2023-05-16T05:50:06.260Z,39.79
2023-05-16T05:50:37.530Z,39.69
2023-05-16T05:51:08.782Z,39.28
2023-05-16T05:51:40.131Z,39.59
2023-05-16T05:52:11.404Z,39.43
2023-05-16T05:52:42.676Z,39.66
2023-05-16T05:53:13.963Z,39.46
2023-05-16T05:53:45.248Z,39.70
2023-05-16T05:54:16.517Z,39.63
2023-05-16T05:54:47.931Z,39.46
2023-05-16T05:55:19.233Z,39.65
2023-05-16T05:55:50.530Z,39.65
2023-05-16T05:56:21.794Z,39.52
2023-05-16T05:56:53.099Z,39.27
2023-05-16T05:57:24.393Z,39.57
2023-05-16T05:57:55.677Z,39.57
2023-05-16T05:58:26.942Z,39.43
2023-05-16T05:58:58.228Z,39.35
2023-05-16T05:59:29.551Z,39.42
2023-05-16T06:00:00.834Z,39.16
2023-05-16T06:00:32.140Z,39.40
2023-05-16T06:01:03.471Z,39.29
2023-05-16T06:01:34.745Z,39.37
2023-05-16T06:02:06.397Z,39.61
2023-05-16T06:02:37.788Z,39.50
2023-05-16T06:03:09.149Z,39.27
2023-05-16T06:03:40.483Z,39.44
2023-05-16T06:04:11.831Z,39.39
2023-05-16T06:04:43.114Z,39.50
2023-05-16T06:05:14.407Z,39.30
2023-05-16T06:05:45.837Z,39.42
2023-05-16T06:06:17.548Z,39.20
2023-05-16T06:06:48.852Z,39.35
2023-05-16T06:07:20.129Z,39.21
2023-05-16T06:07:51.401Z,39.43
2023-05-16T06:08:22.822Z,39.19
2023-05-16T06:08:54.138Z,39.44
2023-05-16T06:09:25.448Z,39.29
2023-05-16T06:09:56.716Z,39.10
2023-05-16T06:10:27.984Z,39.20
2023-05-16T06:10:59.594Z,39.00
2023-05-16T06:11:30.923Z,39.39
2023-05-16T06:12:02.212Z,39.29
2023-05-16T06:12:33.530Z,39.12
2023-05-16T06:13:04.803Z,39.38
2023-05-16T06:13:36.058Z,39.25
2023-05-16T06:14:07.317Z,39.25
2023-05-16T06:14:39.103Z,39.34
2023-05-16T06:15:10.525Z,38.86
2023-05-16T06:15:41.802Z,39.25
2023-05-16T06:16:13.152Z,39.27
2023-05-16T06:16:44.502Z,39.20
2023-05-16T06:17:15.926Z,39.24
2023-05-16T06:17:47.329Z,39.01
2023-05-16T06:18:18.724Z,38.93
2023-05-16T06:18:50.035Z,39.05
2023-05-16T06:19:21.472Z,38.96
2023-05-16T06:19:52.857Z,38.82
2023-05-16T06:20:24.150Z,38.86
2023-05-16T06:20:55.424Z,38.92
2023-05-16T06:21:26.779Z,39.04
2023-05-16T06:21:58.111Z,38.99
2023-05-16T06:22:29.437Z,39.02
2023-05-16T06:23:00.987Z,39.04
2023-05-16T06:23:32.542Z,39.07
2023-05-16T06:24:03.866Z,39.00
2023-05-16T06:24:35.126Z,39.01
2023-05-16T06:25:06.562Z,38.83
2023-05-16T06:25:37.854Z,38.81
2023-05-16T06:26:09.141Z,39.04
2023-05-16T06:26:40.473Z,39.06
2023-05-16T06:27:11.835Z,38.82
2023-05-16T06:27:43.092Z,38.97
2023-05-16T06:28:14.363Z,38.89
2023-05-16T06:28:45.641Z,38.91
2023-05-16T06:29:16.933Z,38.69
2023-05-16T06:29:48.228Z,38.89
2023-05-16T06:30:19.492Z,38.67
2023-05-16T06:30:50.810Z,38.90
2023-05-16T06:31:22.230Z,38.79
2023-05-16T06:31:53.757Z,38.90
2023-05-16T06:32:25.246Z,38.64
2023-05-16T06:32:56.592Z,38.98
2023-05-16T06:33:27.942Z,38.69
2023-05-16T06:33:59.211Z,38.70
2023-05-16T06:34:30.510Z,38.73
2023-05-16T06:35:01.830Z,38.86
2023-05-16T06:35:33.179Z,38.66
2023-05-16T06:36:04.508Z,38.62
2023-05-16T06:36:35.772Z,38.65
2023-05-16T06:37:07.060Z,38.88
2023-05-16T06:37:38.946Z,38.64
2023-05-16T06:38:11.394Z,38.81
2023-05-16T06:38:42.683Z,38.70
2023-05-16T06:39:13.992Z,38.66
2023-05-16T06:39:45.273Z,38.50
2023-05-16T06:40:16.558Z,38.69
2023-05-16T06:40:47.852Z,38.57
2023-05-16T06:41:19.159Z,38.77
2023-05-16T06:41:50.473Z,38.56
2023-05-16T06:42:21.797Z,38.67
2023-05-16T06:42:53.128Z,38.63
2023-05-16T06:43:24.424Z,38.41
2023-05-16T06:43:55.726Z,38.46
2023-05-16T06:44:27.057Z,38.39
2023-05-16T06:44:58.381Z,38.80
2023-05-16T06:45:29.897Z,38.64
2023-05-16T06:46:01.382Z,38.66
2023-05-16T06:46:32.894Z,38.76
2023-05-16T06:47:04.554Z,38.67
2023-05-16T06:47:36.041Z,38.75
2023-05-16T06:48:07.541Z,38.61
2023-05-16T06:48:39.028Z,38.61
2023-05-16T06:49:10.362Z,38.76
2023-05-16T06:49:41.683Z,38.71
2023-05-16T06:50:13.023Z,38.78
2023-05-16T06:50:47.516Z,38.92
2023-05-16T06:51:18.839Z,38.78
2023-05-16T06:51:50.164Z,38.92
2023-05-16T06:52:21.897Z,38.90